createdAt,value
2023-09-24T00:00:07.664Z,6.13
2023-09-24T00:01:08.682Z,6.10
2023-09-24T00:02:06.936Z,6.05
2023-09-24T00:03:07.045Z,6.00
2023-09-24T00:04:07.702Z,5.99
2023-09-24T00:05:08.120Z,5.98
2023-09-24T00:06:07.624Z,5.97
2023-09-24T00:07:06.895Z,5.96
2023-09-24T00:08:06.890Z,5.95
2023-09-24T00:09:07.579Z,5.94
2023-09-24T00:10:06.812Z,5.92
2023-09-24T00:11:08.028Z,5.90
2023-09-24T00:12:08.022Z,5.89
2023-09-24T00:13:08.001Z,5.88
2023-09-24T00:14:08.020Z,5.86
2023-09-24T00:15:06.797Z,5.85
2023-09-24T00:16:08.296Z,5.83
2023-09-24T00:17:07.398Z,5.78
2023-09-24T00:18:07.511Z,5.73
2023-09-24T00:19:07.766Z,5.67
2023-09-24T00:20:07.363Z,5.62
2023-09-24T00:21:07.353Z,5.57
2023-09-24T00:22:07.333Z,5.53
2023-09-24T00:23:07.321Z,5.51
2023-09-24T00:24:07.314Z,5.52
2023-09-24T00:25:07.276Z,5.56
2023-09-24T00:26:06.595Z,5.61
2023-09-24T00:27:07.264Z,5.64
2023-09-24T00:28:06.544Z,5.66
2023-09-24T00:29:06.553Z,5.66
2023-09-24T00:30:07.224Z,5.65
2023-09-24T00:31:06.543Z,5.62
2023-09-24T00:32:07.271Z,5.57
2023-09-24T00:33:06.613Z,5.53
2023-09-24T00:34:06.506Z,5.50
2023-09-24T00:35:08.211Z,5.48
2023-09-24T00:36:07.137Z,5.45
2023-09-24T00:37:06.479Z,5.43
2023-09-24T00:38:07.122Z,5.42
2023-09-24T00:39:08.137Z,5.41
2023-09-24T00:40:07.074Z,5.41
2023-09-24T00:41:06.394Z,5.41
2023-09-24T00:42:06.359Z,5.40
2023-09-24T00:43:07.038Z,5.40
2023-09-24T00:44:06.372Z,5.39
2023-09-24T00:45:06.330Z,5.36
2023-09-24T00:46:07.075Z,5.36
2023-09-24T00:47:07.006Z,5.36
2023-09-24T00:48:06.395Z,5.35
2023-09-24T00:49:06.290Z,5.33
2023-09-24T00:50:06.952Z,5.32
2023-09-24T00:51:06.951Z,5.33
2023-09-24T00:52:06.931Z,5.35
2023-09-24T00:53:06.934Z,5.37
2023-09-24T00:54:06.271Z,5.39
2023-09-24T00:55:06.200Z,5.41
2023-09-24T00:56:06.164Z,5.42
2023-09-24T00:57:06.844Z,5.43
2023-09-24T00:58:06.163Z,5.43
2023-09-24T00:59:06.792Z,5.44
2023-09-24T01:00:06.111Z,5.45
2023-09-24T01:01:06.124Z,5.44
2023-09-24T01:02:06.777Z,5.42
2023-09-24T01:03:06.951Z,5.41
2023-09-24T01:04:06.830Z,5.38
2023-09-24T01:05:06.774Z,5.35
2023-09-24T01:06:07.310Z,5.33
2023-09-24T01:07:08.210Z,5.31
2023-09-24T01:08:07.248Z,5.28
2023-09-24T01:09:07.255Z,5.25
2023-09-24T01:10:06.707Z,5.22
2023-09-24T01:11:07.212Z,5.19
2023-09-24T01:12:07.214Z,5.17
2023-09-24T01:13:06.650Z,5.15
2023-09-24T01:14:06.702Z,5.14
2023-09-24T01:15:07.175Z,5.14
2023-09-24T01:16:06.134Z,5.15
2023-09-24T01:17:06.651Z,5.16
2023-09-24T01:18:06.013Z,5.18
2023-09-24T01:19:05.921Z,5.18
2023-09-24T01:20:06.568Z,5.17
2023-09-24T01:21:06.596Z,5.11
2023-09-24T01:22:05.911Z,5.07
2023-09-24T01:23:06.506Z,5.05
2023-09-24T01:24:06.583Z,5.04
2023-09-24T01:25:06.484Z,5.05
2023-09-24T01:26:05.855Z,5.07
2023-09-24T01:27:05.856Z,5.09
2023-09-24T01:28:06.447Z,5.11
2023-09-24T01:29:06.998Z,5.12
2023-09-24T01:30:06.424Z,5.13
2023-09-24T01:31:05.744Z,5.14
2023-09-24T01:32:06.406Z,5.16
2023-09-24T01:33:05.894Z,5.18
2023-09-24T01:34:06.553Z,5.19
2023-09-24T01:35:06.385Z,5.19
2023-09-24T01:36:05.718Z,5.18
2023-09-24T01:37:06.323Z,5.16
2023-09-24T01:38:05.600Z,5.14
2023-09-24T01:39:05.648Z,5.12
2023-09-24T01:40:05.607Z,5.10
2023-09-24T01:41:07.315Z,5.09
2023-09-24T01:42:05.638Z,5.07
2023-09-24T01:43:05.541Z,5.05
2023-09-24T01:44:05.549Z,5.03
2023-09-24T01:45:06.220Z,5.00
2023-09-24T01:46:06.205Z,4.97
2023-09-24T01:47:06.239Z,4.91
2023-09-24T01:48:05.590Z,4.83
2023-09-24T01:49:06.176Z,4.79
2023-09-24T01:50:05.471Z,4.77
2023-09-24T01:51:07.198Z,4.74
2023-09-24T01:52:06.145Z,4.72
2023-09-24T01:53:06.254Z,4.70
2023-09-24T01:54:06.148Z,4.69
2023-09-24T01:55:06.099Z,4.68
2023-09-24T01:56:06.072Z,4.66
2023-09-24T01:57:06.067Z,4.64
2023-09-24T01:58:06.057Z,4.63
2023-09-24T01:59:05.403Z,4.62
2023-09-24T02:00:06.050Z,4.62
2023-09-24T02:01:05.336Z,4.62
2023-09-24T02:02:06.027Z,4.63
2023-09-24T02:03:06.042Z,4.68
2023-09-24T02:04:07.223Z,4.73
2023-09-24T02:05:05.280Z,4.78
2023-09-24T02:06:05.499Z,4.82
2023-09-24T02:07:05.956Z,4.85
2023-09-24T02:08:05.243Z,4.88
2023-09-24T02:09:05.895Z,4.90
2023-09-24T02:10:05.287Z,4.92
2023-09-24T02:11:05.882Z,4.95
2023-09-24T02:12:05.872Z,4.98
2023-09-24T02:13:05.210Z,5.02
2023-09-24T02:14:05.154Z,5.04
2023-09-24T02:15:05.852Z,5.07
2023-09-24T02:16:06.477Z,5.11
2023-09-24T02:17:05.162Z,5.15
2023-09-24T02:18:05.231Z,5.18
2023-09-24T02:19:06.314Z,5.19
2023-09-24T02:20:06.293Z,5.20
2023-09-24T02:21:06.391Z,5.20
2023-09-24T02:22:06.297Z,5.20
2023-09-24T02:23:05.705Z,5.20
2023-09-24T02:24:06.322Z,5.23
2023-09-24T02:25:06.261Z,5.26
2023-09-24T02:26:06.240Z,5.27
2023-09-24T02:27:05.276Z,5.29
2023-09-24T02:28:05.645Z,5.33
2023-09-24T02:29:05.653Z,5.37
2023-09-24T02:30:06.719Z,5.40
2023-09-24T02:31:05.093Z,5.44
2023-09-24T02:32:05.603Z,5.47
2023-09-24T02:33:05.619Z,5.48
2023-09-24T02:34:06.203Z,5.49
2023-09-24T02:35:05.525Z,5.50
2023-09-24T02:36:04.891Z,5.50
2023-09-24T02:37:05.522Z,5.51
2023-09-24T02:38:05.506Z,5.52
2023-09-24T02:39:05.540Z,5.54
2023-09-24T02:40:05.467Z,5.56
2023-09-24T02:41:04.774Z,5.58
2023-09-24T02:42:05.437Z,5.59
2023-09-24T02:43:05.458Z,5.59
2023-09-24T02:44:06.457Z,5.59
2023-09-24T02:45:05.438Z,5.58
2023-09-24T02:46:04.789Z,5.57
2023-09-24T02:47:04.757Z,5.57
2023-09-24T02:48:04.765Z,5.56
2023-09-24T02:49:05.327Z,5.55
2023-09-24T02:50:05.339Z,5.53
2023-09-24T02:51:04.665Z,5.51
2023-09-24T02:52:05.618Z,5.48
2023-09-24T02:53:04.620Z,5.46
2023-09-24T02:54:05.309Z,5.45
2023-09-24T02:55:04.646Z,5.45
2023-09-24T02:56:04.578Z,5.43
2023-09-24T02:57:05.286Z,5.43
2023-09-24T02:58:04.568Z,5.42
2023-09-24T02:59:05.205Z,5.44
2023-09-24T03:00:05.190Z,5.46
2023-09-24T03:01:05.181Z,5.48
2023-09-24T03:02:05.188Z,5.51
2023-09-24T03:03:04.592Z,5.55
2023-09-24T03:04:05.306Z,5.58
2023-09-24T03:05:04.445Z,5.60
2023-09-24T03:06:04.487Z,5.61
2023-09-24T03:07:05.103Z,5.62
2023-09-24T03:08:05.097Z,5.63
2023-09-24T03:09:05.063Z,5.64
2023-09-24T03:10:04.397Z,5.64
2023-09-24T03:11:04.360Z,5.63
2023-09-24T03:12:05.066Z,5.64
2023-09-24T03:13:04.374Z,5.65
2023-09-24T03:14:04.320Z,5.65
2023-09-24T03:15:04.998Z,5.66
2023-09-24T03:16:04.310Z,5.66
2023-09-24T03:17:04.970Z,5.66
2023-09-24T03:18:04.338Z,5.65
2023-09-24T03:19:06.166Z,5.62
2023-09-24T03:20:04.250Z,5.60
2023-09-24T03:21:04.281Z,5.58
2023-09-24T03:22:04.913Z,5.56
2023-09-24T03:23:04.695Z,5.53
2023-09-24T03:24:04.977Z,5.51
2023-09-24T03:25:04.858Z,5.50
2023-09-24T03:26:04.156Z,5.47
2023-09-24T03:27:04.862Z,5.46
2023-09-24T03:28:04.846Z,5.46
2023-09-24T03:29:04.809Z,5.45
2023-09-24T03:30:04.811Z,5.44
2023-09-24T03:31:04.067Z,5.44
2023-09-24T03:32:04.774Z,5.43
2023-09-24T03:33:04.198Z,5.42
2023-09-24T03:34:04.745Z,5.41
2023-09-24T03:35:04.043Z,5.39
2023-09-24T03:36:04.147Z,5.36
2023-09-24T03:37:04.012Z,5.34
2023-09-24T03:38:04.066Z,5.33
2023-09-24T03:39:04.159Z,5.32
2023-09-24T03:40:04.677Z,5.30
2023-09-24T03:41:04.012Z,5.28
2023-09-24T03:42:04.645Z,5.25
2023-09-24T03:43:04.615Z,5.23
2023-09-24T03:44:03.935Z,5.23
2023-09-24T03:45:03.973Z,5.22
2023-09-24T03:46:03.993Z,5.21
2023-09-24T03:47:03.923Z,5.19
2023-09-24T03:48:04.587Z,5.18
2023-09-24T03:49:03.847Z,5.17
2023-09-24T03:50:03.817Z,5.16
2023-09-24T03:51:04.517Z,5.13
2023-09-24T03:52:04.475Z,5.09
2023-09-24T03:53:03.849Z,5.06
2023-09-24T03:54:05.549Z,5.05
2023-09-24T03:55:04.437Z,5.06
2023-09-24T03:56:04.428Z,5.07
2023-09-24T03:57:04.432Z,5.07
2023-09-24T03:58:04.403Z,5.07
2023-09-24T03:59:03.725Z,5.07
2023-09-24T04:00:04.408Z,5.07
2023-09-24T04:01:03.682Z,5.06
2023-09-24T04:02:04.352Z,5.06
2023-09-24T04:03:03.769Z,5.05
2023-09-24T04:04:04.503Z,5.05
2023-09-24T04:05:04.304Z,5.04
2023-09-24T04:06:03.621Z,5.03
2023-09-24T04:07:04.270Z,5.02
2023-09-24T04:08:04.277Z,5.01
2023-09-24T04:09:03.589Z,5.00
2023-09-24T04:10:04.227Z,4.99
2023-09-24T04:11:04.216Z,4.98
2023-09-24T04:12:03.594Z,4.98
2023-09-24T04:13:03.528Z,4.97
2023-09-24T04:14:04.207Z,4.96
2023-09-24T04:15:04.215Z,4.95
2023-09-24T04:16:03.523Z,4.96
2023-09-24T04:17:04.154Z,4.96
2023-09-24T04:18:05.155Z,4.95
2023-09-24T04:19:04.117Z,4.96
2023-09-24T04:20:03.425Z,4.96
2023-09-24T04:21:04.105Z,4.97
2023-09-24T04:22:04.079Z,4.99
2023-09-24T04:23:04.093Z,5.00
2023-09-24T04:24:04.096Z,5.00
2023-09-24T04:25:04.038Z,5.00
2023-09-24T04:26:03.349Z,5.00
2023-09-24T04:27:04.584Z,5.00
2023-09-24T04:28:05.040Z,4.99
2023-09-24T04:29:03.290Z,4.99
2023-09-24T04:30:04.025Z,5.00
2023-09-24T04:31:03.280Z,4.99
2023-09-24T04:32:03.950Z,4.98
2023-09-24T04:33:04.549Z,4.96
2023-09-24T04:34:04.563Z,4.94
2023-09-24T04:35:04.432Z,4.93
2023-09-24T04:36:04.476Z,4.92
2023-09-24T04:37:04.423Z,4.91
2023-09-24T04:38:03.266Z,4.90
2023-09-24T04:39:04.455Z,4.89
2023-09-24T04:40:02.426Z,4.87
2023-09-24T04:41:03.809Z,4.85
2023-09-24T04:42:03.108Z,4.84
2023-09-24T04:43:03.779Z,4.83
2023-09-24T04:44:03.135Z,4.83
2023-09-24T04:45:03.800Z,4.83
2023-09-24T04:46:03.072Z,4.84
2023-09-24T04:47:03.038Z,4.85
2023-09-24T04:48:03.860Z,4.85
2023-09-24T04:49:03.909Z,4.86
2023-09-24T04:50:03.707Z,4.86
2023-09-24T04:51:03.708Z,4.87
2023-09-24T04:52:04.272Z,4.87
2023-09-24T04:53:03.646Z,4.89
2023-09-24T04:54:02.973Z,4.91
2023-09-24T04:55:02.958Z,4.94
2023-09-24T04:56:02.949Z,4.95
2023-09-24T04:57:03.028Z,4.96
2023-09-24T04:58:03.652Z,4.97
2023-09-24T04:59:03.555Z,4.97
2023-09-24T05:00:04.166Z,4.97
2023-09-24T05:01:02.893Z,4.98
2023-09-24T05:02:03.526Z,4.99
2023-09-24T05:03:03.725Z,5.02
2023-09-24T05:04:03.122Z,5.03
2023-09-24T05:05:02.953Z,5.03
2023-09-24T05:06:03.526Z,5.04
2023-09-24T05:07:02.783Z,5.03
2023-09-24T05:08:03.443Z,5.02
2023-09-24T05:09:03.467Z,5.00
2023-09-24T05:10:02.675Z,4.98
2023-09-24T05:11:03.451Z,4.95
2023-09-24T05:12:03.461Z,4.93
2023-09-24T05:13:04.334Z,4.91
2023-09-24T05:14:02.716Z,4.89
2023-09-24T05:15:02.791Z,4.87
2023-09-24T05:16:03.408Z,4.86
2023-09-24T05:17:02.700Z,4.85
2023-09-24T05:18:03.426Z,4.84
2023-09-24T05:19:03.303Z,4.81
2023-09-24T05:20:03.275Z,4.79
2023-09-24T05:21:03.308Z,4.76
2023-09-24T05:22:03.247Z,4.73
2023-09-24T05:23:03.233Z,4.72
2023-09-24T05:24:02.643Z,4.71
2023-09-24T05:25:03.217Z,4.70
2023-09-24T05:26:03.222Z,4.68
2023-09-24T05:27:03.259Z,4.66
2023-09-24T05:28:03.289Z,4.65
2023-09-24T05:29:04.232Z,4.64
2023-09-24T05:30:02.637Z,4.63
2023-09-24T05:31:03.149Z,4.62
2023-09-24T05:32:02.451Z,4.63
2023-09-24T05:33:03.277Z,4.64
2023-09-24T05:34:03.633Z,4.65
2023-09-24T05:35:02.437Z,4.66
2023-09-24T05:36:03.077Z,4.66
2023-09-24T05:37:02.421Z,4.67
2023-09-24T05:38:03.584Z,4.69
2023-09-24T05:39:02.381Z,4.71
2023-09-24T05:40:03.000Z,4.72
2023-09-24T05:41:03.598Z,4.74
2023-09-24T05:42:03.621Z,4.75
2023-09-24T05:43:03.531Z,4.77
2023-09-24T05:44:03.497Z,4.79
2023-09-24T05:45:03.558Z,4.81
2023-09-24T05:46:03.527Z,4.85
2023-09-24T05:47:03.465Z,4.88
2023-09-24T05:48:03.570Z,4.92
2023-09-24T05:49:03.437Z,4.96
2023-09-24T05:50:03.463Z,4.99
2023-09-24T05:51:03.491Z,5.03
2023-09-24T05:52:03.430Z,5.06
2023-09-24T05:53:03.413Z,5.10
2023-09-24T05:54:02.849Z,5.14
2023-09-24T05:55:02.129Z,5.19
2023-09-24T05:56:02.798Z,5.24
2023-09-24T05:57:02.993Z,5.27
2023-09-24T05:58:03.769Z,5.29
2023-09-24T05:59:02.808Z,5.32
2023-09-24T06:00:02.781Z,5.34
2023-09-24T06:01:02.765Z,5.37
2023-09-24T06:02:02.094Z,5.41
2023-09-24T06:03:03.295Z,5.44
2023-09-24T06:04:02.252Z,5.46
2023-09-24T06:05:02.042Z,5.49
2023-09-24T06:06:03.746Z,5.52
2023-09-24T06:07:02.666Z,5.56
2023-09-24T06:08:01.960Z,5.60
2023-09-24T06:09:02.663Z,5.65
2023-09-24T06:10:01.969Z,5.70
2023-09-24T06:11:01.954Z,5.76
2023-09-24T06:12:01.941Z,5.80
2023-09-24T06:13:02.563Z,5.84
2023-09-24T06:14:02.555Z,5.87
2023-09-24T06:15:01.905Z,5.91
2023-09-24T06:16:02.686Z,5.96
2023-09-24T06:17:01.834Z,6.04
2023-09-24T06:18:01.908Z,6.08
2023-09-24T06:19:02.480Z,6.12
2023-09-24T06:20:02.488Z,6.18
2023-09-24T06:21:02.484Z,6.21
2023-09-24T06:22:01.806Z,6.27
2023-09-24T06:23:02.450Z,6.29
2023-09-24T06:24:01.809Z,6.34
2023-09-24T06:25:02.429Z,6.39
2023-09-24T06:26:02.387Z,6.44
2023-09-24T06:27:02.952Z,6.49
2023-09-24T06:28:01.707Z,6.53
2023-09-24T06:29:10.925Z,6.55
2023-09-24T06:30:02.674Z,6.59
2023-09-24T06:31:02.293Z,6.63
2023-09-24T06:32:02.332Z,6.63
2023-09-24T06:33:02.947Z,6.64
2023-09-24T06:34:02.294Z,6.64
2023-09-24T06:35:01.660Z,6.62
2023-09-24T06:36:01.672Z,6.61
2023-09-24T06:37:02.275Z,6.59
2023-09-24T06:38:03.190Z,6.55
2023-09-24T06:39:02.245Z,6.50
2023-09-24T06:40:02.242Z,6.50
2023-09-24T06:41:02.192Z,6.47
2023-09-24T06:42:01.604Z,6.46
2023-09-24T06:43:02.248Z,6.45
2023-09-24T06:44:02.163Z,6.48
2023-09-24T06:45:02.182Z,6.51
2023-09-24T06:46:01.529Z,6.51
2023-09-24T06:47:01.484Z,6.54
2023-09-24T06:48:02.753Z,6.63
2023-09-24T06:49:02.172Z,6.71
2023-09-24T06:50:01.395Z,6.79
2023-09-24T06:51:01.453Z,6.88
2023-09-24T06:52:01.366Z,6.92
2023-09-24T06:53:02.059Z,6.96
2023-09-24T06:54:02.035Z,6.99
2023-09-24T06:55:02.042Z,7.00
2023-09-24T06:56:02.945Z,7.02
2023-09-24T06:57:02.044Z,7.11
2023-09-24T06:58:03.022Z,7.22
2023-09-24T06:59:01.262Z,7.29
2023-09-24T07:00:01.947Z,7.36
2023-09-24T07:01:01.916Z,7.43
2023-09-24T07:02:01.247Z,7.52
2023-09-24T07:03:02.015Z,7.59
2023-09-24T07:04:02.078Z,7.68
2023-09-24T07:05:01.857Z,7.78
2023-09-24T07:06:02.471Z,7.85
2023-09-24T07:07:01.183Z,7.93
2023-09-24T07:08:01.826Z,7.96
2023-09-24T07:09:01.855Z,8.01
2023-09-24T07:10:01.178Z,8.07
2023-09-24T07:11:01.076Z,8.10
2023-09-24T07:12:01.183Z,8.07
2023-09-24T07:13:01.806Z,8.04
2023-09-24T07:14:01.728Z,8.07
2023-09-24T07:15:02.895Z,8.06
2023-09-24T07:16:02.319Z,8.11
2023-09-24T07:17:01.687Z,8.10
2023-09-24T07:18:01.746Z,8.16
2023-09-24T07:19:02.214Z,8.26
2023-09-24T07:20:01.640Z,8.38
2023-09-24T07:21:01.665Z,8.49
2023-09-24T07:22:01.645Z,8.55
2023-09-24T07:23:01.620Z,8.48
2023-09-24T07:24:01.701Z,8.43
2023-09-24T07:25:00.899Z,8.46
2023-09-24T07:26:00.921Z,8.47
2023-09-24T07:27:01.625Z,8.48
2023-09-24T07:28:00.858Z,8.44
2023-09-24T07:29:01.722Z,8.47
2023-09-24T07:30:01.571Z,8.52
2023-09-24T07:31:00.799Z,8.55
2023-09-24T07:32:01.560Z,8.53
2023-09-24T07:33:01.558Z,8.54
2023-09-24T07:34:02.105Z,8.52
2023-09-24T07:35:00.739Z,8.51
2023-09-24T07:36:03.459Z,8.46
2023-09-24T07:37:13.430Z,8.43
2023-09-24T07:38:01.789Z,8.45
2023-09-24T07:39:00.813Z,8.41
2023-09-24T07:40:01.378Z,8.50
2023-09-24T07:41:01.363Z,8.63
2023-09-24T07:42:02.444Z,8.72
2023-09-24T07:43:01.337Z,8.79
2023-09-24T07:44:00.625Z,8.80
2023-09-24T07:45:01.324Z,8.78
2023-09-24T07:46:01.357Z,8.88
2023-09-24T07:47:01.268Z,9.03
2023-09-24T07:48:01.343Z,9.17
2023-09-24T07:49:01.854Z,9.21
2023-09-24T07:50:00.584Z,9.28
2023-09-24T07:51:01.275Z,9.39
2023-09-24T07:52:00.578Z,9.51
2023-09-24T07:53:01.199Z,9.50
2023-09-24T07:54:01.778Z,9.50
2023-09-24T07:55:00.566Z,9.49
2023-09-24T07:56:01.703Z,9.52
2023-09-24T07:57:01.731Z,9.57
2023-09-24T07:58:01.731Z,9.67
2023-09-24T07:59:01.677Z,9.79
2023-09-24T08:00:01.666Z,9.85
2023-09-24T08:01:02.585Z,9.93
2023-09-24T08:02:01.649Z,9.99
2023-09-24T08:03:00.457Z,10.11
2023-09-24T08:04:01.611Z,10.20
2023-09-24T08:05:01.614Z,10.35
2023-09-24T08:06:01.604Z,10.45
2023-09-24T08:07:00.379Z,10.43
2023-09-24T08:08:01.552Z,10.45
2023-09-24T08:09:18.222Z,10.60
2023-09-24T08:10:01.328Z,10.78
2023-09-24T08:11:00.988Z,10.99
2023-09-24T08:12:00.304Z,11.11
2023-09-24T08:13:01.512Z,11.29
2023-09-24T08:14:00.234Z,11.36
2023-09-24T08:15:00.952Z,11.46
2023-09-24T08:16:01.005Z,11.61
2023-09-24T08:17:00.930Z,11.77
2023-09-24T08:18:00.962Z,11.77
2023-09-24T08:19:02.662Z,11.83
2023-09-24T08:20:01.804Z,12.05
2023-09-24T08:21:00.891Z,12.28
2023-09-24T08:22:01.787Z,12.50
2023-09-24T08:23:00.789Z,12.74
2023-09-24T08:24:01.340Z,12.92
2023-09-24T08:25:00.759Z,12.94
2023-09-24T08:26:00.770Z,13.14
2023-09-24T08:27:00.764Z,13.16
2023-09-24T08:28:00.046Z,13.03
2023-09-24T08:29:00.086Z,12.95
2023-09-24T08:30:00.109Z,12.83
2023-09-24T08:31:00.738Z,12.67
2023-09-24T08:32:00.657Z,12.69
2023-09-24T08:33:00.140Z,12.90
2023-09-24T08:34:00.640Z,13.25
2023-09-24T08:34:59.938Z,13.76
2023-09-24T08:36:00.749Z,14.17
2023-09-24T08:37:00.587Z,14.72
2023-09-24T08:37:59.898Z,14.90
2023-09-24T08:39:01.658Z,14.95
2023-09-24T08:39:59.880Z,15.13
2023-09-24T08:40:59.846Z,15.73
2023-09-24T08:41:59.968Z,15.87
2023-09-24T08:42:59.923Z,15.93
2023-09-24T08:43:59.818Z,16.27
2023-09-24T08:44:59.800Z,16.59
2023-09-24T08:45:59.774Z,16.79
2023-09-24T08:47:01.601Z,16.66
2023-09-24T08:48:00.541Z,17.11
2023-09-24T08:49:00.430Z,17.78
2023-09-24T08:49:59.771Z,18.41
2023-09-24T08:51:00.458Z,18.38
2023-09-24T08:51:59.715Z,18.03
2023-09-24T08:53:00.392Z,17.87
2023-09-24T08:54:00.401Z,17.94
2023-09-24T08:55:00.397Z,18.19
2023-09-24T08:55:59.662Z,18.71
2023-09-24T08:56:59.716Z,19.16
2023-09-24T08:58:00.310Z,19.60
2023-09-24T08:58:59.599Z,20.03
2023-09-24T09:00:00.874Z,20.24
2023-09-24T09:01:00.839Z,20.01
2023-09-24T09:02:00.885Z,19.59
2023-09-24T09:02:59.677Z,19.61
2023-09-24T09:04:00.966Z,19.74
2023-09-24T09:04:59.530Z,19.85
2023-09-24T09:06:01.267Z,20.23
2023-09-24T09:06:59.510Z,20.31
2023-09-24T09:08:00.197Z,20.83
2023-09-24T09:09:01.144Z,21.45
2023-09-24T09:10:00.219Z,22.09
2023-09-24T09:10:59.539Z,22.31
2023-09-24T09:12:00.155Z,22.53
2023-09-24T09:12:59.590Z,22.24
2023-09-24T09:14:00.132Z,22.33
2023-09-24T09:15:00.126Z,22.50
2023-09-24T09:16:00.089Z,22.40
2023-09-24T09:17:00.052Z,22.00
2023-09-24T09:18:01.447Z,22.16
2023-09-24T09:19:00.066Z,22.47
2023-09-24T09:20:00.066Z,22.67
2023-09-24T09:21:00.088Z,23.03
2023-09-24T09:22:00.023Z,23.25
2023-09-24T09:23:00.597Z,23.45
2023-09-24T09:24:00.061Z,23.44
2023-09-24T09:24:59.966Z,23.42
2023-09-24T09:25:59.953Z,23.60
2023-09-24T09:26:59.348Z,23.54
2023-09-24T09:27:59.245Z,23.55
2023-09-24T09:28:59.907Z,23.54
2023-09-24T09:29:59.928Z,23.48
2023-09-24T09:30:59.348Z,23.44
2023-09-24T09:32:01.557Z,23.59
2023-09-24T09:32:59.972Z,23.85
2023-09-24T09:34:01.133Z,23.54
2023-09-24T09:34:59.840Z,23.72
2023-09-24T09:36:00.917Z,23.93
2023-09-24T09:36:59.823Z,24.03
2023-09-24T09:37:59.801Z,24.36
2023-09-24T09:39:00.056Z,24.67
2023-09-24T09:39:59.121Z,25.23
2023-09-24T09:40:59.742Z,25.66
2023-09-24T09:41:59.776Z,25.69
2023-09-24T09:42:59.721Z,25.55
2023-09-24T09:43:59.080Z,25.67
2023-09-24T09:44:59.724Z,25.86
2023-09-24T09:45:59.100Z,25.72
2023-09-24T09:46:59.676Z,25.65
2023-09-24T09:47:59.149Z,25.55
2023-09-24T09:48:59.654Z,25.88
2023-09-24T09:49:59.662Z,25.75
2023-09-24T09:50:59.027Z,25.93
2023-09-24T09:51:59.642Z,26.24
2023-09-24T09:52:59.602Z,26.47
2023-09-24T09:53:58.955Z,26.06
2023-09-24T09:54:59.610Z,25.43
2023-09-24T09:55:59.621Z,25.38
2023-09-24T09:56:59.593Z,25.83
2023-09-24T09:58:07.779Z,26.05
2023-09-24T09:59:00.556Z,26.63
2023-09-24T09:59:59.588Z,27.00
2023-09-24T10:00:58.913Z,27.15
2023-09-24T10:02:00.975Z,27.07
2023-09-24T10:02:59.412Z,27.04
2023-09-24T10:03:59.470Z,27.18
2023-09-24T10:04:59.495Z,27.13
2023-09-24T10:05:59.531Z,27.16
2023-09-24T10:06:58.807Z,27.45
2023-09-24T10:07:58.734Z,27.28
2023-09-24T10:08:59.460Z,27.20
2023-09-24T10:09:58.721Z,26.97
2023-09-24T10:10:59.360Z,26.54
2023-09-24T10:11:59.942Z,25.90
2023-09-24T10:12:59.912Z,25.12
2023-09-24T10:13:59.895Z,25.22
2023-09-24T10:14:58.671Z,25.29
2023-09-24T10:15:59.344Z,25.41
2023-09-24T10:16:58.599Z,25.56
2023-09-24T10:17:59.407Z,25.69
2023-09-24T10:18:59.918Z,25.67
2023-09-24T10:20:00.780Z,25.55
2023-09-24T10:20:59.945Z,25.44
2023-09-24T10:21:59.825Z,25.28
2023-09-24T10:22:59.810Z,24.87
2023-09-24T10:23:58.529Z,24.59
2023-09-24T10:24:58.537Z,24.22
2023-09-24T10:25:59.164Z,24.18
2023-09-24T10:26:58.512Z,24.08
2023-09-24T10:28:07.769Z,23.76
2023-09-24T10:28:59.476Z,23.63
2023-09-24T10:29:59.154Z,23.73
2023-09-24T10:30:58.445Z,23.41
2023-09-24T10:31:59.712Z,23.04
2023-09-24T10:32:59.169Z,22.84
2023-09-24T10:33:59.270Z,22.53
2023-09-24T10:34:59.070Z,21.87
2023-09-24T10:35:58.469Z,21.53
2023-09-24T10:36:59.052Z,21.42
2023-09-24T10:37:58.385Z,21.23
2023-09-24T10:39:03.869Z,21.06
2023-09-24T10:39:58.378Z,20.97
2023-09-24T10:40:58.320Z,21.01
2023-09-24T10:41:58.373Z,21.01
2023-09-24T10:42:58.264Z,21.09
2023-09-24T10:43:58.374Z,21.39
2023-09-24T10:44:58.348Z,21.59
2023-09-24T10:45:58.956Z,21.89
2023-09-24T10:47:00.054Z,22.31
2023-09-24T10:47:58.262Z,22.90
2023-09-24T10:48:58.549Z,23.40
2023-09-24T10:49:58.221Z,23.91
2023-09-24T10:50:58.308Z,24.13
2023-09-24T10:51:58.856Z,24.12
2023-09-24T10:52:58.146Z,24.06
2023-09-24T10:53:58.938Z,24.24
2023-09-24T10:54:59.333Z,24.46
2023-09-24T10:56:11.038Z,24.49
2023-09-24T10:56:59.816Z,24.68
2023-09-24T10:57:58.100Z,24.98
2023-09-24T10:58:58.781Z,25.52
2023-09-24T10:59:58.163Z,25.76
2023-09-24T11:00:58.874Z,25.39
2023-09-24T11:01:58.106Z,25.30
2023-09-24T11:02:58.854Z,25.37
2023-09-24T11:03:58.135Z,25.88
2023-09-24T11:04:57.965Z,26.06
2023-09-24T11:05:58.090Z,26.16
2023-09-24T11:06:58.701Z,26.52
2023-09-24T11:07:58.661Z,27.00
2023-09-24T11:08:57.996Z,27.49
2023-09-24T11:09:58.181Z,27.62
2023-09-24T11:10:58.973Z,27.34
2023-09-24T11:11:58.659Z,27.54
2023-09-24T11:12:58.605Z,27.40
2023-09-24T11:13:59.615Z,27.47
2023-09-24T11:15:14.138Z,27.76
2023-09-24T11:15:59.618Z,27.68
2023-09-24T11:16:58.569Z,27.98
2023-09-24T11:17:59.178Z,28.17
2023-09-24T11:18:58.571Z,28.37
2023-09-24T11:19:57.833Z,28.60
2023-09-24T11:20:57.891Z,28.34
2023-09-24T11:21:58.493Z,28.04
2023-09-24T11:22:58.463Z,27.65
2023-09-24T11:23:57.839Z,27.64
2023-09-24T11:24:58.439Z,27.48
2023-09-24T11:25:58.475Z,27.06
2023-09-24T11:26:58.452Z,26.78
2023-09-24T11:27:57.768Z,26.58
2023-09-24T11:28:58.361Z,26.59
2023-09-24T11:29:57.773Z,26.88
2023-09-24T11:30:58.367Z,27.20
2023-09-24T11:31:58.354Z,27.44
2023-09-24T11:32:58.391Z,27.64
2023-09-24T11:33:58.336Z,27.32
2023-09-24T11:34:57.634Z,26.72
2023-09-24T11:35:58.355Z,26.46
2023-09-24T11:36:58.289Z,26.21
2023-09-24T11:37:57.627Z,26.28
2023-09-24T11:38:58.297Z,26.49
2023-09-24T11:39:58.271Z,26.68
2023-09-24T11:40:58.807Z,26.48
2023-09-24T11:41:58.303Z,26.36
2023-09-24T11:42:58.779Z,26.56
2023-09-24T11:43:58.751Z,27.14
2023-09-24T11:44:58.808Z,27.69
2023-09-24T11:45:58.745Z,27.55
2023-09-24T11:46:58.237Z,27.07
2023-09-24T11:47:57.648Z,26.86
2023-09-24T11:48:58.773Z,26.73
2023-09-24T11:49:57.428Z,26.54
2023-09-24T11:50:58.198Z,26.13
2023-09-24T11:51:58.091Z,25.97
2023-09-24T11:52:58.103Z,26.06
2023-09-24T11:53:57.395Z,26.12
2023-09-24T11:54:58.120Z,25.85
2023-09-24T11:55:57.388Z,25.76
2023-09-24T11:56:59.509Z,25.78
2023-09-24T11:57:58.019Z,26.30
2023-09-24T11:58:58.004Z,26.59
2023-09-24T11:59:58.064Z,26.89
2023-09-24T12:00:57.372Z,27.27
2023-09-24T12:01:57.934Z,27.43
2023-09-24T12:02:58.060Z,27.25
2023-09-24T12:03:57.348Z,27.17
2023-09-24T12:04:58.978Z,27.15
2023-09-24T12:05:57.935Z,27.32
2023-09-24T12:06:57.283Z,27.20
2023-09-24T12:07:57.905Z,26.68
2023-09-24T12:08:57.928Z,26.67
2023-09-24T12:09:57.226Z,26.79
2023-09-24T12:10:57.245Z,26.90
2023-09-24T12:11:57.277Z,27.24
2023-09-24T12:12:57.841Z,27.45
2023-09-24T12:13:57.841Z,27.85
2023-09-24T12:14:57.164Z,27.90
2023-09-24T12:15:57.136Z,28.23
2023-09-24T12:16:57.774Z,28.47
2023-09-24T12:17:57.162Z,28.24
2023-09-24T12:18:57.844Z,27.74
2023-09-24T12:19:57.755Z,27.12
2023-09-24T12:20:57.106Z,26.95
2023-09-24T12:21:57.730Z,27.18
2023-09-24T12:22:57.738Z,27.09
2023-09-24T12:23:57.747Z,27.07
2023-09-24T12:24:57.688Z,26.96
2023-09-24T12:25:57.051Z,27.23
2023-09-24T12:26:57.721Z,27.73
2023-09-24T12:27:56.965Z,27.64
2023-09-24T12:28:56.993Z,27.36
2023-09-24T12:29:57.708Z,26.87
2023-09-24T12:30:58.695Z,26.28
2023-09-24T12:31:56.942Z,26.10
2023-09-24T12:32:57.087Z,25.88
2023-09-24T12:33:57.686Z,25.91
2023-09-24T12:34:56.886Z,25.91
2023-09-24T12:35:57.561Z,25.86
2023-09-24T12:36:57.551Z,25.80
2023-09-24T12:37:58.110Z,25.86
2023-09-24T12:38:59.421Z,25.92
2023-09-24T12:39:57.496Z,26.02
2023-09-24T12:40:58.793Z,26.01
2023-09-24T12:41:58.040Z,25.88
2023-09-24T12:42:58.012Z,25.56
2023-09-24T12:43:57.989Z,25.78
2023-09-24T12:44:58.007Z,26.35
2023-09-24T12:45:56.793Z,26.26
2023-09-24T12:46:58.067Z,26.17
2023-09-24T12:47:58.537Z,26.40
2023-09-24T12:48:57.973Z,26.59
2023-09-24T12:49:57.896Z,26.27
2023-09-24T12:50:57.920Z,25.89
2023-09-24T12:51:59.400Z,25.98
2023-09-24T12:52:57.315Z,26.25
2023-09-24T12:53:57.894Z,26.46
2023-09-24T12:54:57.314Z,27.02
2023-09-24T12:55:56.641Z,27.16
2023-09-24T12:56:57.299Z,27.47
2023-09-24T12:57:56.585Z,27.48
2023-09-24T12:58:57.251Z,27.24
2023-09-24T12:59:56.671Z,27.33
2023-09-24T13:00:56.553Z,27.25
2023-09-24T13:01:57.242Z,26.71
2023-09-24T13:02:56.601Z,26.87
2023-09-24T13:03:56.622Z,26.93
2023-09-24T13:04:56.458Z,26.66
2023-09-24T13:05:57.201Z,26.31
2023-09-24T13:06:58.104Z,26.13
2023-09-24T13:07:57.161Z,26.25